AFR6024 LIEA-LFBO
Flight info
| Callsign | AFR6024 |
|---|---|
| Flight time | 1h 8m |
| Altitude | 38000 |
| Route | GINOX DCT ZETCO DCT JUSQO DCT ORBIL |
| Aircraft | A320/M-SDE3FGHIRWY/LB1 |
Departure
| Time | 2026-05-06 12:38 |
|---|---|
| Airport | Alghero-Fertilia Airport (LIEA) |
Arrival
| Time | 2026-05-06 13:46 |
|---|---|
| Airport | Toulouse-Blagnac Airport (LFBO) |
| Time | Latitude | Longitude | Altitude | Speed | Heading |
|---|---|---|---|---|---|
| 2026-05-06 12:20 | 40.62928 | 8.29379 | 86 ft | 0 kts | 115° |
| 2026-05-06 12:30 | 40.62929 | 8.29376 | 90 ft | 2 kts | 115° |
| 2026-05-06 12:30 | 40.62938 | 8.29348 | 88 ft | 3 kts | 103° |
| 2026-05-06 12:30 | 40.62939 | 8.29309 | 86 ft | 3 kts | 62° |
| 2026-05-06 12:30 | 40.62931 | 8.29295 | 91 ft | 2 kts | 24° |
| 2026-05-06 12:31 | 40.62926 | 8.29292 | 91 ft | 0 kts | 24° |
| 2026-05-06 12:33 | 40.62927 | 8.29293 | 91 ft | 2 kts | 24° |
| 2026-05-06 12:33 | 40.62960 | 8.29312 | 87 ft | 7 kts | 25° |
| 2026-05-06 12:33 | 40.63014 | 8.29345 | 87 ft | 10 kts | 24° |
| 2026-05-06 12:33 | 40.63086 | 8.29388 | 89 ft | 12 kts | 25° |
| 2026-05-06 12:34 | 40.63171 | 8.29440 | 87 ft | 16 kts | 24° |
| 2026-05-06 12:34 | 40.63285 | 8.29480 | 88 ft | 16 kts | 345° |
| 2026-05-06 12:34 | 40.63390 | 8.29449 | 90 ft | 15 kts | 351° |
| 2026-05-06 12:34 | 40.63479 | 8.29485 | 90 ft | 13 kts | 25° |
| 2026-05-06 12:35 | 40.63570 | 8.29539 | 92 ft | 17 kts | 24° |
| 2026-05-06 12:35 | 40.63693 | 8.29613 | 92 ft | 22 kts | 24° |
| 2026-05-06 12:35 | 40.63842 | 8.29702 | 93 ft | 24 kts | 25° |
| 2026-05-06 12:35 | 40.63987 | 8.29789 | 93 ft | 22 kts | 24° |
| 2026-05-06 12:36 | 40.64120 | 8.29870 | 95 ft | 20 kts | 24° |
| 2026-05-06 12:36 | 40.64242 | 8.29943 | 95 ft | 18 kts | 25° |
| 2026-05-06 12:36 | 40.64341 | 8.29994 | 96 ft | 14 kts | 0° |
| 2026-05-06 12:36 | 40.64421 | 8.29942 | 95 ft | 13 kts | 302° |
| 2026-05-06 12:37 | 40.64412 | 8.29824 | 94 ft | 15 kts | 246° |
| 2026-05-06 12:37 | 40.64333 | 8.29748 | 94 ft | 9 kts | 202° |
| 2026-05-06 12:37 | 40.64321 | 8.29741 | 94 ft | 0 kts | 204° |
| 2026-05-06 12:37 | 40.64301 | 8.29729 | 94 ft | 13 kts | 204° |
| 2026-05-06 12:38 | 40.63972 | 8.29531 | 93 ft | 90 kts | 204° |
| 2026-05-06 12:38 | 40.63203 | 8.29070 | 93 ft | 150 kts | 205° |
| 2026-05-06 12:38 | 40.62216 | 8.28471 | 669 ft | 157 kts | 202° |
| 2026-05-06 12:38 | 40.61146 | 8.28107 | 1455 ft | 164 kts | 192° |
| 2026-05-06 12:39 | 40.59956 | 8.27829 | 1937 ft | 184 kts | 191° |
| 2026-05-06 12:39 | 40.58644 | 8.27515 | 2375 ft | 205 kts | 192° |
| 2026-05-06 12:39 | 40.57193 | 8.27147 | 2951 ft | 218 kts | 192° |
| 2026-05-06 12:39 | 40.55699 | 8.26771 | 3879 ft | 218 kts | 193° |
| 2026-05-06 12:40 | 40.54205 | 8.26385 | 4803 ft | 221 kts | 193° |
| 2026-05-06 12:40 | 40.52689 | 8.25994 | 5664 ft | 223 kts | 193° |
| 2026-05-06 12:40 | 40.51159 | 8.25599 | 6547 ft | 225 kts | 192° |
| 2026-05-06 12:40 | 40.49623 | 8.25177 | 7404 ft | 226 kts | 199° |
| 2026-05-06 12:41 | 40.48346 | 8.24048 | 8231 ft | 226 kts | 234° |
| 2026-05-06 12:41 | 40.47825 | 8.22052 | 8794 ft | 248 kts | 268° |
| 2026-05-06 12:41 | 40.48003 | 8.19686 | 9268 ft | 271 kts | 277° |
| 2026-05-06 12:41 | 40.48371 | 8.17210 | 10069 ft | 279 kts | 279° |
| 2026-05-06 12:42 | 40.48847 | 8.14640 | 10503 ft | 303 kts | 287° |
| 2026-05-06 12:42 | 40.50044 | 8.12242 | 11036 ft | 326 kts | 313° |
| 2026-05-06 12:42 | 40.52012 | 8.10671 | 11802 ft | 341 kts | 339° |
| 2026-05-06 12:42 | 40.54382 | 8.10114 | 12630 ft | 349 kts | 350° |
| 2026-05-06 12:43 | 40.56814 | 8.09763 | 13476 ft | 353 kts | 351° |
| 2026-05-06 12:43 | 40.59275 | 8.09456 | 14237 ft | 358 kts | 351° |
| 2026-05-06 12:43 | 40.61770 | 8.09161 | 14918 ft | 363 kts | 351° |
| 2026-05-06 12:43 | 40.64304 | 8.08860 | 15588 ft | 368 kts | 351° |
| 2026-05-06 12:44 | 40.66878 | 8.08543 | 16275 ft | 373 kts | 351° |
| 2026-05-06 12:44 | 40.69475 | 8.08214 | 16950 ft | 378 kts | 350° |
| 2026-05-06 12:44 | 40.72110 | 8.07874 | 17620 ft | 382 kts | 350° |
| 2026-05-06 12:44 | 40.74771 | 8.07529 | 18286 ft | 387 kts | 350° |
| 2026-05-06 12:45 | 40.77439 | 8.06956 | 18861 ft | 387 kts | 340° |
| 2026-05-06 12:45 | 40.79964 | 8.05768 | 19443 ft | 385 kts | 329° |
| 2026-05-06 12:45 | 40.84381 | 8.01876 | 20640 ft | 384 kts | 316° |
| 2026-05-06 12:46 | 40.86501 | 7.99711 | 21242 ft | 387 kts | 316° |
| 2026-05-06 12:46 | 40.88657 | 7.97541 | 21846 ft | 391 kts | 316° |
| 2026-05-06 12:46 | 40.90847 | 7.95380 | 22452 ft | 395 kts | 316° |
| 2026-05-06 12:46 | 40.93072 | 7.93205 | 23044 ft | 399 kts | 316° |
| 2026-05-06 12:47 | 40.95315 | 7.91014 | 23622 ft | 403 kts | 316° |
| 2026-05-06 12:47 | 40.97574 | 7.88798 | 24114 ft | 406 kts | 316° |
| 2026-05-06 12:47 | 40.99847 | 7.86563 | 24605 ft | 408 kts | 315° |
| 2026-05-06 12:47 | 41.02133 | 7.84306 | 25092 ft | 411 kts | 316° |
| 2026-05-06 12:48 | 41.04404 | 7.82060 | 25567 ft | 414 kts | 316° |
| 2026-05-06 12:48 | 41.06718 | 7.79770 | 26026 ft | 416 kts | 316° |
| 2026-05-06 12:48 | 41.09046 | 7.77462 | 26476 ft | 419 kts | 316° |
| 2026-05-06 12:48 | 41.11386 | 7.75138 | 26927 ft | 422 kts | 316° |
| 2026-05-06 12:49 | 41.13741 | 7.72793 | 27366 ft | 424 kts | 316° |
| 2026-05-06 12:49 | 41.16107 | 7.70436 | 27784 ft | 427 kts | 316° |
| 2026-05-06 12:49 | 41.18488 | 7.68063 | 28213 ft | 430 kts | 316° |
| 2026-05-06 12:49 | 41.20887 | 7.65669 | 28612 ft | 432 kts | 316° |
| 2026-05-06 12:50 | 41.23297 | 7.63260 | 29022 ft | 435 kts | 316° |
| 2026-05-06 12:50 | 41.25718 | 7.60836 | 29426 ft | 437 kts | 316° |
| 2026-05-06 12:50 | 41.28157 | 7.58393 | 29804 ft | 440 kts | 316° |
| 2026-05-06 12:50 | 41.30609 | 7.55940 | 30166 ft | 442 kts | 316° |
| 2026-05-06 12:51 | 41.33076 | 7.53472 | 30485 ft | 445 kts | 316° |
| 2026-05-06 12:51 | 41.35550 | 7.50993 | 30804 ft | 447 kts | 316° |
| 2026-05-06 12:51 | 41.38039 | 7.48497 | 31119 ft | 448 kts | 316° |
| 2026-05-06 12:51 | 41.40529 | 7.45996 | 31433 ft | 450 kts | 316° |
| 2026-05-06 12:52 | 41.43032 | 7.43478 | 31755 ft | 451 kts | 315° |
| 2026-05-06 12:52 | 41.45531 | 7.40963 | 32187 ft | 449 kts | 315° |
| 2026-05-06 12:52 | 41.48022 | 7.38456 | 32628 ft | 448 kts | 315° |
| 2026-05-06 12:52 | 41.50502 | 7.35961 | 33052 ft | 446 kts | 315° |
| 2026-05-06 12:53 | 41.52978 | 7.33468 | 33506 ft | 444 kts | 315° |
| 2026-05-06 12:53 | 41.55437 | 7.30986 | 33945 ft | 443 kts | 315° |
| 2026-05-06 12:53 | 41.57885 | 7.28510 | 34329 ft | 441 kts | 315° |
| 2026-05-06 12:53 | 41.60329 | 7.26034 | 34677 ft | 440 kts | 315° |
| 2026-05-06 12:54 | 41.62765 | 7.23559 | 35013 ft | 439 kts | 315° |
| 2026-05-06 12:54 | 41.65195 | 7.21090 | 35336 ft | 438 kts | 315° |
| 2026-05-06 12:54 | 41.67622 | 7.18622 | 35649 ft | 438 kts | 315° |
| 2026-05-06 12:54 | 41.70017 | 7.16183 | 35953 ft | 437 kts | 315° |
| 2026-05-06 12:55 | 41.72433 | 7.13722 | 36253 ft | 436 kts | 315° |
| 2026-05-06 12:55 | 41.74847 | 7.11263 | 36551 ft | 436 kts | 315° |
| 2026-05-06 12:55 | 41.77258 | 7.08807 | 36851 ft | 435 kts | 315° |
| 2026-05-06 12:55 | 41.79670 | 7.06351 | 37147 ft | 434 kts | 315° |
| 2026-05-06 12:56 | 41.82076 | 7.03899 | 37419 ft | 433 kts | 315° |
| 2026-05-06 12:56 | 41.84472 | 7.01455 | 37688 ft | 432 kts | 315° |
| 2026-05-06 12:56 | 41.86864 | 6.99010 | 37915 ft | 433 kts | 315° |
| 2026-05-06 12:57 | 41.91634 | 6.94122 | 37963 ft | 430 kts | 315° |
| 2026-05-06 12:57 | 41.96381 | 6.89248 | 37964 ft | 429 kts | 315° |
| 2026-05-06 12:58 | 42.01120 | 6.84368 | 37959 ft | 429 kts | 314° |
| 2026-05-06 12:58 | 42.05821 | 6.79518 | 37958 ft | 429 kts | 314° |
| 2026-05-06 12:59 | 42.10557 | 6.74616 | 37963 ft | 429 kts | 314° |
| 2026-05-06 12:59 | 42.14917 | 6.69299 | 37972 ft | 416 kts | 301° |
| 2026-05-06 13:00 | 42.17775 | 6.62733 | 37963 ft | 402 kts | 287° |
| 2026-05-06 13:00 | 42.20068 | 6.55863 | 37970 ft | 402 kts | 287° |
| 2026-05-06 13:01 | 42.22377 | 6.48975 | 37977 ft | 403 kts | 287° |
| 2026-05-06 13:01 | 42.24675 | 6.42083 | 37983 ft | 403 kts | 287° |
| 2026-05-06 13:02 | 42.26971 | 6.35185 | 37979 ft | 403 kts | 287° |
| 2026-05-06 13:02 | 42.29264 | 6.28277 | 37976 ft | 403 kts | 287° |
| 2026-05-06 13:03 | 42.31548 | 6.21359 | 37966 ft | 403 kts | 287° |
| 2026-05-06 13:03 | 42.33829 | 6.14436 | 37966 ft | 403 kts | 287° |
| 2026-05-06 13:04 | 42.36116 | 6.07498 | 37971 ft | 404 kts | 287° |
| 2026-05-06 13:04 | 42.38395 | 6.00565 | 37971 ft | 404 kts | 287° |
| 2026-05-06 13:05 | 42.40666 | 5.93617 | 37973 ft | 404 kts | 287° |
| 2026-05-06 13:05 | 42.42922 | 5.86711 | 37977 ft | 404 kts | 287° |
| 2026-05-06 13:06 | 42.45191 | 5.79748 | 37972 ft | 404 kts | 287° |
| 2026-05-06 13:06 | 42.47460 | 5.72772 | 37976 ft | 404 kts | 287° |
| 2026-05-06 13:07 | 42.49721 | 5.65795 | 37974 ft | 405 kts | 287° |
| 2026-05-06 13:07 | 42.51986 | 5.58793 | 37972 ft | 405 kts | 287° |
| 2026-05-06 13:08 | 42.54244 | 5.51798 | 37981 ft | 405 kts | 287° |
| 2026-05-06 13:08 | 42.56498 | 5.44786 | 37980 ft | 405 kts | 287° |
| 2026-05-06 13:09 | 42.58734 | 5.37815 | 37979 ft | 406 kts | 287° |
| 2026-05-06 13:09 | 42.60977 | 5.30790 | 37979 ft | 406 kts | 287° |
| 2026-05-06 13:10 | 42.63221 | 5.23751 | 37985 ft | 406 kts | 287° |
| 2026-05-06 13:10 | 42.65465 | 5.16704 | 37985 ft | 407 kts | 287° |
| 2026-05-06 13:11 | 42.67701 | 5.09655 | 37985 ft | 407 kts | 287° |
| 2026-05-06 13:11 | 42.69933 | 5.02590 | 37986 ft | 407 kts | 287° |
| 2026-05-06 13:12 | 42.72154 | 4.95521 | 37984 ft | 407 kts | 287° |
| 2026-05-06 13:12 | 42.74007 | 4.88314 | 37981 ft | 401 kts | 280° |
| 2026-05-06 13:13 | 42.75475 | 4.80993 | 37978 ft | 401 kts | 279° |
| 2026-05-06 13:13 | 42.76926 | 4.73668 | 37972 ft | 401 kts | 279° |
| 2026-05-06 13:14 | 42.78382 | 4.66332 | 37974 ft | 401 kts | 279° |
| 2026-05-06 13:14 | 42.79827 | 4.58998 | 37976 ft | 401 kts | 279° |
| 2026-05-06 13:15 | 42.81264 | 4.51702 | 37970 ft | 401 kts | 279° |
| 2026-05-06 13:15 | 42.82704 | 4.44358 | 37968 ft | 402 kts | 279° |
| 2026-05-06 13:16 | 42.84146 | 4.36997 | 37968 ft | 402 kts | 279° |
| 2026-05-06 13:16 | 42.85586 | 4.29629 | 37969 ft | 403 kts | 279° |
| 2026-05-06 13:17 | 42.87022 | 4.22241 | 37969 ft | 403 kts | 279° |
| 2026-05-06 13:17 | 42.88205 | 4.16087 | 37965 ft | 403 kts | 279° |
| 2026-05-06 13:18 | 42.89623 | 4.08685 | 37966 ft | 404 kts | 279° |
| 2026-05-06 13:18 | 42.91049 | 4.01265 | 37935 ft | 405 kts | 280° |
| 2026-05-06 13:18 | 42.91770 | 3.97497 | 37677 ft | 414 kts | 280° |
| 2026-05-06 13:19 | 42.92498 | 3.93684 | 37410 ft | 416 kts | 280° |
| 2026-05-06 13:19 | 42.93228 | 3.89875 | 37148 ft | 414 kts | 280° |
| 2026-05-06 13:19 | 42.93954 | 3.86082 | 36890 ft | 412 kts | 279° |
| 2026-05-06 13:19 | 42.94670 | 3.82310 | 36631 ft | 409 kts | 279° |
| 2026-05-06 13:20 | 42.95377 | 3.78564 | 36376 ft | 406 kts | 279° |
| 2026-05-06 13:20 | 42.96076 | 3.74849 | 36129 ft | 402 kts | 279° |
| 2026-05-06 13:20 | 42.96772 | 3.71174 | 35692 ft | 397 kts | 279° |
| 2026-05-06 13:20 | 42.97455 | 3.67544 | 35216 ft | 392 kts | 279° |
| 2026-05-06 13:21 | 42.98124 | 3.63961 | 34739 ft | 388 kts | 278° |
| 2026-05-06 13:21 | 42.98789 | 3.60403 | 34264 ft | 385 kts | 278° |
| 2026-05-06 13:21 | 42.99449 | 3.56878 | 33763 ft | 381 kts | 278° |
| 2026-05-06 13:21 | 43.00103 | 3.53392 | 33273 ft | 376 kts | 278° |
| 2026-05-06 13:22 | 43.00748 | 3.49950 | 32821 ft | 371 kts | 278° |
| 2026-05-06 13:22 | 43.01380 | 3.46558 | 32369 ft | 367 kts | 278° |
| 2026-05-06 13:22 | 43.02002 | 3.43205 | 31928 ft | 362 kts | 278° |
| 2026-05-06 13:22 | 43.02617 | 3.39892 | 31490 ft | 358 kts | 278° |
| 2026-05-06 13:23 | 43.03227 | 3.36613 | 31077 ft | 353 kts | 278° |
| 2026-05-06 13:23 | 43.03825 | 3.33379 | 30654 ft | 349 kts | 278° |
| 2026-05-06 13:23 | 43.04416 | 3.30176 | 30249 ft | 345 kts | 277° |
| 2026-05-06 13:23 | 43.04996 | 3.27012 | 29822 ft | 341 kts | 277° |
| 2026-05-06 13:24 | 43.05570 | 3.23890 | 29414 ft | 336 kts | 277° |
| 2026-05-06 13:24 | 43.06139 | 3.20811 | 29042 ft | 332 kts | 278° |
| 2026-05-06 13:24 | 43.06691 | 3.17812 | 28672 ft | 327 kts | 278° |
| 2026-05-06 13:24 | 43.07246 | 3.14775 | 28302 ft | 322 kts | 278° |
| 2026-05-06 13:25 | 43.07778 | 3.11866 | 27939 ft | 317 kts | 278° |
| 2026-05-06 13:25 | 43.08307 | 3.08975 | 27598 ft | 312 kts | 278° |
| 2026-05-06 13:25 | 43.08831 | 3.06103 | 27239 ft | 308 kts | 278° |
| 2026-05-06 13:25 | 43.09345 | 3.03269 | 26881 ft | 307 kts | 278° |
| 2026-05-06 13:26 | 43.09857 | 3.00434 | 26526 ft | 306 kts | 278° |
| 2026-05-06 13:26 | 43.10367 | 2.97609 | 26149 ft | 305 kts | 279° |
| 2026-05-06 13:26 | 43.10876 | 2.94794 | 25773 ft | 305 kts | 279° |
| 2026-05-06 13:26 | 43.11385 | 2.91979 | 25400 ft | 304 kts | 279° |
| 2026-05-06 13:27 | 43.11890 | 2.89173 | 25010 ft | 303 kts | 280° |
| 2026-05-06 13:27 | 43.12394 | 2.86368 | 24622 ft | 303 kts | 280° |
| 2026-05-06 13:27 | 43.12899 | 2.83569 | 24229 ft | 303 kts | 281° |
| 2026-05-06 13:27 | 43.13402 | 2.80776 | 23832 ft | 302 kts | 281° |
| 2026-05-06 13:28 | 43.13905 | 2.77982 | 23421 ft | 302 kts | 282° |
| 2026-05-06 13:28 | 43.14405 | 2.75195 | 22979 ft | 301 kts | 282° |
| 2026-05-06 13:28 | 43.14902 | 2.72421 | 22588 ft | 300 kts | 282° |
| 2026-05-06 13:28 | 43.15396 | 2.69659 | 22204 ft | 298 kts | 282° |
| 2026-05-06 13:29 | 43.15886 | 2.66908 | 21828 ft | 296 kts | 282° |
| 2026-05-06 13:29 | 43.16369 | 2.64171 | 21446 ft | 295 kts | 282° |
| 2026-05-06 13:29 | 43.16848 | 2.61449 | 21075 ft | 293 kts | 282° |
| 2026-05-06 13:29 | 43.17327 | 2.58737 | 20696 ft | 292 kts | 282° |
| 2026-05-06 13:30 | 43.17806 | 2.56046 | 20335 ft | 290 kts | 282° |
| 2026-05-06 13:30 | 43.18297 | 2.53369 | 19971 ft | 290 kts | 286° |
| 2026-05-06 13:30 | 43.19102 | 2.50837 | 19603 ft | 291 kts | 298° |
| 2026-05-06 13:30 | 43.20318 | 2.48618 | 19218 ft | 294 kts | 311° |
| 2026-05-06 13:31 | 43.21902 | 2.46828 | 18820 ft | 298 kts | 324° |
| 2026-05-06 13:31 | 43.23673 | 2.45327 | 18414 ft | 300 kts | 324° |
| 2026-05-06 13:31 | 43.25451 | 2.43805 | 17977 ft | 302 kts | 324° |
| 2026-05-06 13:31 | 43.27228 | 2.42271 | 17557 ft | 302 kts | 324° |
| 2026-05-06 13:32 | 43.29004 | 2.40735 | 17149 ft | 301 kts | 324° |
| 2026-05-06 13:32 | 43.30776 | 2.39201 | 16756 ft | 301 kts | 324° |
| 2026-05-06 13:32 | 43.32520 | 2.37691 | 16371 ft | 299 kts | 323° |
| 2026-05-06 13:32 | 43.34121 | 2.35906 | 16002 ft | 294 kts | 310° |
| 2026-05-06 13:33 | 43.35354 | 2.33710 | 15631 ft | 289 kts | 298° |
| 2026-05-06 13:33 | 43.36230 | 2.31243 | 15284 ft | 286 kts | 291° |
| 2026-05-06 13:33 | 43.37034 | 2.28745 | 14929 ft | 285 kts | 291° |
| 2026-05-06 13:33 | 43.37835 | 2.26263 | 14580 ft | 284 kts | 291° |
| 2026-05-06 13:34 | 43.38629 | 2.23799 | 14271 ft | 283 kts | 291° |
| 2026-05-06 13:34 | 43.39436 | 2.21300 | 13916 ft | 283 kts | 291° |
| 2026-05-06 13:34 | 43.40234 | 2.18826 | 13538 ft | 283 kts | 291° |
| 2026-05-06 13:34 | 43.41031 | 2.16356 | 13171 ft | 281 kts | 291° |
| 2026-05-06 13:35 | 43.41810 | 2.13938 | 12817 ft | 279 kts | 291° |
| 2026-05-06 13:35 | 43.42594 | 2.11506 | 12461 ft | 277 kts | 291° |
| 2026-05-06 13:35 | 43.43374 | 2.09085 | 12105 ft | 275 kts | 291° |
| 2026-05-06 13:35 | 43.44144 | 2.06684 | 11750 ft | 274 kts | 291° |
| 2026-05-06 13:36 | 43.44911 | 2.04288 | 11389 ft | 272 kts | 291° |
| 2026-05-06 13:36 | 43.45674 | 2.01905 | 11027 ft | 271 kts | 291° |
| 2026-05-06 13:36 | 43.46431 | 1.99542 | 10669 ft | 269 kts | 291° |
| 2026-05-06 13:36 | 43.47185 | 1.97187 | 10303 ft | 268 kts | 291° |
| 2026-05-06 13:37 | 43.47933 | 1.94846 | 9927 ft | 267 kts | 291° |
| 2026-05-06 13:37 | 43.48674 | 1.92489 | 9537 ft | 268 kts | 288° |
| 2026-05-06 13:37 | 43.49102 | 1.90005 | 9206 ft | 265 kts | 275° |
| 2026-05-06 13:37 | 43.49096 | 1.87470 | 8757 ft | 265 kts | 267° |
| 2026-05-06 13:38 | 43.49004 | 1.84934 | 8341 ft | 264 kts | 267° |
| 2026-05-06 13:38 | 43.48921 | 1.82421 | 7927 ft | 262 kts | 267° |
| 2026-05-06 13:38 | 43.48839 | 1.79919 | 7522 ft | 261 kts | 267° |
| 2026-05-06 13:38 | 43.48759 | 1.77467 | 7371 ft | 251 kts | 267° |
| 2026-05-06 13:39 | 43.48682 | 1.75151 | 7219 ft | 240 kts | 267° |
| 2026-05-06 13:39 | 43.48608 | 1.72891 | 6961 ft | 234 kts | 267° |
| 2026-05-06 13:39 | 43.48535 | 1.70663 | 6789 ft | 234 kts | 268° |
| 2026-05-06 13:39 | 43.48460 | 1.68428 | 6419 ft | 233 kts | 267° |
| 2026-05-06 13:40 | 43.48385 | 1.66198 | 5995 ft | 233 kts | 267° |
| 2026-05-06 13:40 | 43.48312 | 1.63978 | 5602 ft | 232 kts | 268° |
| 2026-05-06 13:40 | 43.48234 | 1.61764 | 5226 ft | 230 kts | 266° |
| 2026-05-06 13:40 | 43.47940 | 1.59593 | 4837 ft | 229 kts | 258° |
| 2026-05-06 13:41 | 43.47586 | 1.57453 | 4424 ft | 229 kts | 259° |
| 2026-05-06 13:41 | 43.47343 | 1.55354 | 4255 ft | 218 kts | 271° |
| 2026-05-06 13:41 | 43.47575 | 1.53360 | 4078 ft | 207 kts | 288° |
| 2026-05-06 13:41 | 43.48242 | 1.51639 | 3884 ft | 203 kts | 305° |
| 2026-05-06 13:42 | 43.49264 | 1.50307 | 3638 ft | 202 kts | 319° |
| 2026-05-06 13:42 | 43.50387 | 1.49149 | 3385 ft | 203 kts | 319° |
| 2026-05-06 13:42 | 43.51495 | 1.48006 | 3132 ft | 191 kts | 319° |
| 2026-05-06 13:42 | 43.52510 | 1.46958 | 2856 ft | 174 kts | 319° |
| 2026-05-06 13:43 | 43.53435 | 1.46000 | 2633 ft | 157 kts | 319° |
| 2026-05-06 13:43 | 43.54270 | 1.45135 | 2440 ft | 144 kts | 319° |
| 2026-05-06 13:43 | 43.55029 | 1.44343 | 2309 ft | 133 kts | 318° |
| 2026-05-06 13:43 | 43.55745 | 1.43592 | 2074 ft | 129 kts | 317° |
| 2026-05-06 13:44 | 43.56457 | 1.42857 | 1834 ft | 127 kts | 317° |
| 2026-05-06 13:44 | 43.57157 | 1.42126 | 1682 ft | 127 kts | 317° |
| 2026-05-06 13:44 | 43.57867 | 1.41394 | 1496 ft | 128 kts | 317° |
| 2026-05-06 13:44 | 43.58575 | 1.40664 | 1373 ft | 127 kts | 319° |
| 2026-05-06 13:45 | 43.59291 | 1.39917 | 1191 ft | 132 kts | 319° |
| 2026-05-06 13:45 | 43.60733 | 1.38422 | 827 ft | 129 kts | 323° |
| 2026-05-06 13:45 | 43.61448 | 1.37667 | 649 ft | 130 kts | 324° |
| 2026-05-06 13:46 | 43.62169 | 1.36933 | 495 ft | 124 kts | 324° |
| 2026-05-06 13:46 | 43.62735 | 1.36341 | 494 ft | 78 kts | 323° |
| 2026-05-06 13:46 | 43.63076 | 1.35986 | 490 ft | 54 kts | 323° |
| 2026-05-06 13:46 | 43.63351 | 1.35702 | 488 ft | 45 kts | 322° |
| 2026-05-06 13:47 | 43.63521 | 1.35525 | 494 ft | 19 kts | 325° |
| 2026-05-06 13:47 | 43.63624 | 1.35584 | 491 ft | 19 kts | 54° |
| 2026-05-06 13:47 | 43.63708 | 1.35736 | 487 ft | 21 kts | 53° |
| 2026-05-06 13:47 | 43.63792 | 1.35889 | 494 ft | 16 kts | 53° |
| 2026-05-06 13:48 | 43.63788 | 1.36023 | 494 ft | 17 kts | 146° |
| 2026-05-06 13:48 | 43.63697 | 1.36116 | 490 ft | 15 kts | 142° |
| 2026-05-06 13:48 | 43.63616 | 1.36201 | 491 ft | 14 kts | 143° |
| 2026-05-06 13:48 | 43.63540 | 1.36280 | 494 ft | 13 kts | 143° |
| 2026-05-06 13:49 | 43.63470 | 1.36353 | 492 ft | 12 kts | 143° |
| 2026-05-06 13:49 | 43.63390 | 1.36436 | 485 ft | 19 kts | 142° |
| 2026-05-06 13:49 | 43.63263 | 1.36566 | 490 ft | 25 kts | 143° |
| 2026-05-06 13:49 | 43.63119 | 1.36716 | 494 ft | 27 kts | 143° |
| 2026-05-06 13:50 | 43.62979 | 1.36861 | 494 ft | 20 kts | 142° |
| 2026-05-06 13:50 | 43.62968 | 1.36987 | 486 ft | 15 kts | 51° |
| 2026-05-06 13:50 | 43.63014 | 1.37070 | 494 ft | 10 kts | 56° |
| 2026-05-06 13:50 | 43.62999 | 1.37146 | 490 ft | 8 kts | 132° |
| 2026-05-06 13:51 | 43.63014 | 1.37205 | 493 ft | 7 kts | 52° |
| 2026-05-06 13:51 | 43.63038 | 1.37251 | 494 ft | 4 kts | 53° |
| 2026-05-06 13:51 | 43.63040 | 1.37254 | 494 ft | 0 kts | 53° |